Time;durP1;ratioP1;P1;durP2;ratioP2;P2;SDS_P1;SDS_P2;PMS_P1;PMS_P2;Temp;Humidity;BMP_temperature;BMP_pressure;BME280_temperature;BME280_humidity;BME280_pressure;Samples;Min_cycle;Max_cycle;Signal;HPM_P1;HPM_P2
2023/07/05 00:02:26;;;;;;;0.10;0.10;;;19.60;99.90;;;;;;5058970;28;20012;-82
2023/07/05 00:04:52;;;;;;;1.40;0.73;;;20.00;99.90;;;;;;5059212;28;20044;-84
2023/07/05 00:07:18;;;;;;;0.10;0.10;;;20.00;99.90;;;;;;5041473;28;20024;-72
2023/07/05 00:09:43;;;;;;;0.30;0.30;;;19.80;99.90;;;;;;5058726;28;20094;-72
2023/07/05 00:12:09;;;;;;;0.38;0.38;;;19.80;99.90;;;;;;5041641;28;20021;-82
2023/07/05 00:14:35;;;;;;;0.95;0.95;;;19.90;99.90;;;;;;5058998;28;20021;-71
2023/07/05 00:17:01;;;;;;;0.10;0.10;;;20.10;99.90;;;;;;5058671;28;20086;-74
2023/07/05 00:19:26;;;;;;;0.55;0.55;;;20.30;99.90;;;;;;5059699;28;20048;-72
2023/07/05 00:21:52;;;;;;;0.10;0.10;;;20.60;99.90;;;;;;5059387;28;20100;-78
2023/07/05 00:24:18;;;;;;;0.20;0.20;;;20.80;99.90;;;;;;5057673;28;20186;-73
2023/07/05 00:26:44;;;;;;;0.90;0.90;;;21.10;99.90;;;;;;5059079;28;20033;-78
2023/07/05 00:29:09;;;;;;;0.10;0.10;;;21.00;99.90;;;;;;5058777;28;20013;-74
2023/07/05 00:31:35;;;;;;;0.20;0.20;;;20.60;99.90;;;;;;5058942;28;20034;-76
2023/07/05 00:34:03;;;;;;;0.10;0.10;;;20.80;99.90;;;;;;5058958;28;20031;-78
2023/07/05 00:36:29;;;;;;;0.10;0.10;;;20.80;99.90;;;;;;5059118;28;20337;-71
2023/07/05 00:38:55;;;;;;;0.10;0.10;;;20.80;99.90;;;;;;5058616;28;20722;-78
2023/07/05 00:41:20;;;;;;;0.10;0.10;;;20.90;99.90;;;;;;5058765;28;20085;-77
2023/07/05 00:43:49;;;;;;;0.10;0.10;;;19.40;99.90;;;;;;5058427;28;20020;-71
2023/07/05 00:46:26;;;;;;;2.17;1.98;;;21.10;99.90;;;;;;5058628;28;20027;-72
2023/07/05 00:49:02;;;;;;;0.17;0.17;;;21.30;99.90;;;;;;5058586;28;20020;-82
2023/07/05 00:51:40;;;;;;;0.10;0.10;;;21.30;99.90;;;;;;5058489;28;20060;-75
2023/07/05 00:54:06;;;;;;;0.10;0.10;;;21.30;99.90;;;;;;5058483;28;20013;-80
2023/07/05 00:56:47;;;;;;;0.22;0.22;;;21.30;99.90;;;;;;5057954;28;20032;-75
2023/07/05 00:59:17;;;;;;;0.80;0.80;;;21.00;99.90;;;;;;5058321;28;20020;-82
2023/07/05 01:01:43;;;;;;;2.20;2.10;;;21.00;99.90;;;;;;5058258;28;20024;-79
2023/07/05 01:04:10;;;;;;;0.57;0.57;;;21.20;99.90;;;;;;5058049;28;20169;-78
2023/07/05 01:06:36;;;;;;;0.85;0.85;;;21.00;99.90;;;;;;5058224;28;20055;-79
2023/07/05 01:09:04;;;;;;;0.10;0.10;;;21.00;99.90;;;;;;5058267;28;20702;-77
2023/07/05 01:11:44;;;;;;;1.98;1.63;;;21.10;99.90;;;;;;5058691;28;20027;-75
2023/07/05 01:14:35;;;;;;;0.28;0.28;;;21.20;99.90;;;;;;5058367;28;20044;-84
2023/07/05 01:17:27;;;;;;;1.40;1.30;;;21.20;99.90;;;;;;5057850;28;20028;-75
2023/07/05 01:20:34;;;;;;;0.25;0.25;;;21.40;99.90;;;;;;5044821;28;20090;-76
2023/07/05 01:23:29;;;;;;;0.10;0.10;;;21.40;99.90;;;;;;4956604;28;20058;-79
2023/07/05 01:26:26;;;;;;;0.10;0.10;;;21.50;99.90;;;;;;4956401;28;20758;-77
2023/07/05 01:29:18;;;;;;;4.82;0.45;;;21.50;99.90;;;;;;4956881;28;20035;-81
2023/07/05 01:31:56;;;;;;;0.15;0.15;;;21.60;99.90;;;;;;4957052;28;20278;-73
2023/07/05 01:34:43;;;;;;;1.13;0.95;;;21.50;99.90;;;;;;4940656;28;20766;-79
2023/07/05 01:37:21;;;;;;;1.42;1.33;;;21.40;99.90;;;;;;4956184;28;20117;-77
2023/07/05 01:39:47;;;;;;;0.10;0.10;;;21.50;99.90;;;;;;4956536;28;20037;-74
2023/07/05 01:42:13;;;;;;;0.85;0.85;;;21.80;99.90;;;;;;4956920;28;20216;-72
2023/07/05 01:44:39;;;;;;;0.68;0.68;;;21.30;99.90;;;;;;4956928;28;20034;-76
2023/07/05 01:47:21;;;;;;;0.40;0.40;;;21.30;99.90;;;;;;4956218;28;20101;-80
2023/07/05 01:50:15;;;;;;;0.40;0.40;;;21.30;99.90;;;;;;4956422;28;20085;-72
2023/07/05 01:52:46;;;;;;;0.43;0.43;;;21.10;99.90;;;;;;4956586;28;20462;-77
2023/07/05 01:55:12;;;;;;;0.20;0.20;;;21.00;99.90;;;;;;4956245;28;20026;-75
2023/07/05 01:57:51;;;;;;;0.17;0.17;;;21.10;99.90;;;;;;4956495;28;20035;-73
2023/07/05 02:00:19;;;;;;;0.38;0.38;;;21.20;99.90;;;;;;5027916;28;20036;-75
2023/07/05 02:03:01;;;;;;;0.47;0.47;;;21.20;99.90;;;;;;5057567;28;20021;-72
2023/07/05 02:05:29;;;;;;;0.65;0.65;;;21.20;99.90;;;;;;5057587;28;20044;-76
2023/07/05 02:07:59;;;;;;;0.10;0.10;;;21.20;99.90;;;;;;5057761;28;20008;-72
2023/07/05 02:10:25;;;;;;;0.15;0.15;;;21.10;99.90;;;;;;5057843;28;20020;-84
2023/07/05 02:12:52;;;;;;;0.22;0.22;;;21.20;99.90;;;;;;5057750;28;20032;-78
2023/07/05 02:15:19;;;;;;;0.10;0.10;;;19.90;99.90;;;;;;5058130;28;20624;-84
2023/07/05 02:17:44;;;;;;;0.10;0.10;;;21.30;99.90;;;;;;5057635;28;20047;-81
2023/07/05 02:20:11;;;;;;;0.10;0.10;;;20.90;99.90;;;;;;5057798;28;20024;-84
2023/07/05 02:22:37;;;;;;;0.40;0.40;;;20.50;99.90;;;;;;5057311;28;20576;-85
2023/07/05 02:25:03;;;;;;;3.03;1.30;;;20.20;99.90;;;;;;5057745;28;20012;-80
2023/07/05 02:27:29;;;;;;;0.10;0.10;;;19.90;99.90;;;;;;5038905;28;20111;-78
2023/07/05 02:29:55;;;;;;;0.10;0.10;;;19.60;99.90;;;;;;5057538;28;20036;-81
2023/07/05 02:32:22;;;;;;;0.17;0.17;;;19.30;99.90;;;;;;5040038;28;20438;-78
2023/07/05 02:34:47;;;;;;;0.10;0.10;;;19.00;99.90;;;;;;5057402;28;20100;-77
2023/07/05 02:37:14;;;;;;;0.10;0.10;;;19.10;99.90;;;;;;5057611;28;20035;-78
2023/07/05 02:39:40;;;;;;;0.10;0.10;;;19.40;99.90;;;;;;5057820;28;20020;-78
2023/07/05 02:42:07;;;;;;;0.20;0.20;;;19.90;99.90;;;;;;5058167;28;20028;-81
2023/07/05 02:44:33;;;;;;;0.63;0.63;;;20.30;99.90;;;;;;5057603;28;20430;-74
2023/07/05 02:46:58;;;;;;;0.20;0.20;;;20.50;99.90;;;;;;5057478;28;20025;-81
2023/07/05 02:49:24;;;;;;;0.13;0.13;;;20.70;99.90;;;;;;5062071;28;20021;-72
2023/07/05 02:51:50;;;;;;;0.40;0.40;;;20.80;99.90;;;;;;5061060;28;20021;-80
2023/07/05 02:54:16;;;;;;;0.10;0.10;;;22.30;99.90;;;;;;5062047;28;20023;-76
2023/07/05 02:56:42;;;;;;;0.10;0.10;;;20.90;99.90;;;;;;5062091;28;20032;-82
2023/07/05 02:59:08;;;;;;;0.10;0.10;;;20.60;99.90;;;;;;5061826;28;20295;-79
2023/07/05 03:01:34;;;;;;;1.95;1.77;;;20.80;99.90;;;;;;5061661;28;20025;-81
2023/07/05 03:03:59;;;;;;;1.30;1.30;;;20.90;99.90;;;;;;5061517;28;20039;-89
2023/07/05 03:06:25;;;;;;;0.95;0.95;;;21.00;99.90;;;;;;5061486;28;20031;-76
2023/07/05 03:08:51;;;;;;;0.20;0.20;;;21.10;99.90;;;;;;5061206;28;20019;-75
2023/07/05 03:11:16;;;;;;;0.22;0.22;;;21.20;99.90;;;;;;5044003;28;20052;-80
2023/07/05 03:13:42;;;;;;;0.20;0.20;;;21.20;99.90;;;;;;5061196;28;20047;-79
2023/07/05 03:16:08;;;;;;;0.43;0.43;;;21.30;99.90;;;;;;5060999;28;20023;-79
2023/07/05 03:18:34;;;;;;;0.30;0.30;;;21.40;99.90;;;;;;5061351;28;20078;-76
2023/07/05 03:21:00;;;;;;;0.13;0.13;;;21.40;99.90;;;;;;5043803;28;20706;-80
2023/07/05 03:23:25;;;;;;;0.15;0.15;;;21.30;99.90;;;;;;5062063;28;20025;-84
2023/07/05 03:26:04;;;;;;;0.13;0.13;;;21.30;99.90;;;;;;5060845;28;20099;-77
2023/07/05 03:28:31;;;;;;;0.20;0.20;;;21.10;99.90;;;;;;5061256;28;20024;-80
2023/07/05 03:31:03;;;;;;;1.08;1.08;;;21.00;99.90;;;;;;5060676;28;20701;-79
2023/07/05 03:33:31;;;;;;;0.10;0.10;;;20.80;99.90;;;;;;5061148;28;20027;-83
2023/07/05 03:36:03;;;;;;;0.10;0.10;;;20.60;99.90;;;;;;5060263;28;20116;-88
2023/07/05 03:38:30;;;;;;;0.30;0.30;;;20.50;99.90;;;;;;5061060;28;20020;-76
2023/07/05 03:41:04;;;;;;;0.10;0.10;;;20.70;99.90;;;;;;5060645;28;20120;-83
2023/07/05 03:43:35;;;;;;;0.20;0.20;;;20.80;99.90;;;;;;5042845;28;20023;-84
2023/07/05 03:46:05;;;;;;;0.10;0.10;;;21.00;99.90;;;;;;5060425;28;20586;-75
2023/07/05 03:48:36;;;;;;;0.20;0.20;;;21.10;99.90;;;;;;5060251;28;20339;-81
2023/07/05 03:51:02;;;;;;;0.10;0.10;;;20.90;99.90;;;;;;5060516;28;20054;-75
2023/07/05 03:53:28;;;;;;;0.10;0.10;;;21.00;99.90;;;;;;5060947;28;20025;-80
2023/07/05 03:55:59;;;;;;;0.55;0.55;;;21.10;99.90;;;;;;5060755;28;20119;-77
2023/07/05 03:58:24;;;;;;;0.70;0.70;;;21.20;99.90;;;;;;5060703;28;20029;-80
2023/07/05 04:00:50;;;;;;;0.40;0.40;;;21.30;99.90;;;;;;5059876;28;20017;-78
2023/07/05 04:03:16;;;;;;;0.10;0.10;;;21.30;99.90;;;;;;5060023;28;20611;-79
2023/07/05 04:05:42;;;;;;;0.80;0.80;;;21.50;99.90;;;;;;5060289;28;20691;-78
2023/07/05 04:08:08;;;;;;;0.45;0.45;;;21.50;99.90;;;;;;5060885;28;20024;-83
2023/07/05 04:10:33;;;;;;;0.57;0.47;;;21.60;99.90;;;;;;5059785;28;20713;-78
2023/07/05 04:12:59;;;;;;;1.08;1.00;;;21.60;99.90;;;;;;5060619;28;20083;-76
2023/07/05 04:15:25;;;;;;;0.10;0.10;;;21.50;99.90;;;;;;5060344;28;20237;-73
2023/07/05 04:17:50;;;;;;;0.20;0.20;;;21.60;99.90;;;;;;5060096;28;20090;-79
2023/07/05 04:20:16;;;;;;;0.45;0.45;;;21.60;99.90;;;;;;5059614;28;20015;-85
2023/07/05 04:22:43;;;;;;;0.40;0.40;;;21.60;99.90;;;;;;5059432;28;20089;-72
2023/07/05 04:25:10;;;;;;;0.50;0.50;;;21.70;99.90;;;;;;5059621;28;20013;-74
2023/07/05 04:27:36;;;;;;;0.10;0.10;;;21.60;99.90;;;;;;5059494;28;20023;-75
2023/07/05 04:30:03;;;;;;;0.10;0.10;;;21.70;99.90;;;;;;5041704;28;20167;-74
2023/07/05 04:32:30;;;;;;;0.90;0.90;;;21.80;99.90;;;;;;5059196;28;20027;-75
2023/07/05 04:34:56;;;;;;;0.10;0.10;;;21.80;99.90;;;;;;5059069;28;20021;-85
2023/07/05 04:37:21;;;;;;;0.17;0.17;;;21.80;99.90;;;;;;5059457;28;20031;-85
2023/07/05 04:39:47;;;;;;;0.10;0.10;;;21.90;99.90;;;;;;5061261;28;20035;-84
2023/07/05 04:42:13;;;;;;;0.20;0.20;;;21.90;99.90;;;;;;5061198;28;20028;-79
2023/07/05 04:44:39;;;;;;;0.43;0.43;;;21.90;99.90;;;;;;5059993;28;20016;-73
2023/07/05 04:47:05;;;;;;;1.75;1.00;;;21.70;99.90;;;;;;5060619;28;20154;-76
2023/07/05 04:49:31;;;;;;;0.57;0.55;;;21.60;99.90;;;;;;5059554;28;20105;-72
2023/07/05 04:51:56;;;;;;;0.28;0.28;;;21.40;99.90;;;;;;5060780;28;20634;-72
2023/07/05 04:54:22;;;;;;;0.47;0.47;;;21.40;99.90;;;;;;5062162;28;20012;-73
2023/07/05 04:56:48;;;;;;;0.13;0.13;;;21.40;99.90;;;;;;5060982;28;20039;-74
2023/07/05 04:59:14;;;;;;;0.10;0.10;;;21.40;99.90;;;;;;5062911;28;20607;-76
2023/07/05 05:01:40;;;;;;;0.10;0.10;;;21.30;99.90;;;;;;5059473;28;20048;-76
2023/07/05 05:04:06;;;;;;;0.10;0.10;;;21.40;99.90;;;;;;5059477;28;20040;-76
2023/07/05 05:06:32;;;;;;;0.10;0.10;;;21.50;99.90;;;;;;5059470;28;20036;-81
2023/07/05 05:08:58;;;;;;;0.55;0.55;;;21.50;99.90;;;;;;5059053;28;20023;-88
2023/07/05 05:11:26;;;;;;;1.08;0.95;;;21.60;99.90;;;;;;5059396;28;20017;-87
2023/07/05 05:13:52;;;;;;;0.45;0.45;;;21.70;99.90;;;;;;5059557;28;20051;-73
2023/07/05 05:16:18;;;;;;;0.20;0.20;;;21.90;99.90;;;;;;5058912;28;20057;-78
2023/07/05 05:18:44;;;;;;;0.10;0.10;;;22.00;99.90;;;;;;5058511;28;20021;-73
2023/07/05 05:21:10;;;;;;;0.22;0.22;;;21.80;99.90;;;;;;5059259;28;20024;-82
2023/07/05 05:23:36;;;;;;;1.05;1.00;;;21.90;99.90;;;;;;5058641;28;20107;-85
2023/07/05 05:26:02;;;;;;;2.47;2.28;;;21.90;99.90;;;;;;5058706;28;20020;-77
2023/07/05 05:28:30;;;;;;;0.35;0.35;;;22.00;99.90;;;;;;5060319;28;20161;-79
2023/07/05 05:31:10;;;;;;;1.95;1.85;;;21.90;99.90;;;;;;5061797;28;20013;-85
2023/07/05 05:33:37;;;;;;;0.10;0.10;;;22.00;99.90;;;;;;5061375;28;20035;-77
2023/07/05 05:36:03;;;;;;;0.10;0.10;;;22.10;99.90;;;;;;5061077;28;20028;-73
2023/07/05 05:38:29;;;;;;;0.10;0.10;;;22.20;99.90;;;;;;5050684;28;20036;-73
2023/07/05 05:41:04;;;;;;;0.15;0.15;;;22.30;99.90;;;;;;5038832;28;20100;-82
2023/07/05 05:43:30;;;;;;;0.70;0.70;;;22.20;99.90;;;;;;5021675;28;20025;-72
2023/07/05 05:45:56;;;;;;;0.70;0.70;;;22.40;99.90;;;;;;5039921;28;20013;-76
2023/07/05 05:48:22;;;;;;;0.10;0.10;;;22.30;99.90;;;;;;5038711;28;20021;-76
2023/07/05 05:50:48;;;;;;;0.10;0.10;;;22.30;99.90;;;;;;5039084;28;20614;-79
2023/07/05 05:53:14;;;;;;;0.10;0.10;;;22.40;99.90;;;;;;5038461;28;20098;-81
2023/07/05 05:55:40;;;;;;;0.10;0.10;;;22.50;99.90;;;;;;5038495;28;20650;-83
2023/07/05 05:58:07;;;;;;;0.20;0.20;;;22.50;99.90;;;;;;5038936;28;20029;-80
2023/07/05 06:00:33;;;;;;;0.15;0.15;;;22.40;99.90;;;;;;5038908;28;20017;-79
2023/07/05 06:02:58;;;;;;;0.10;0.10;;;22.40;99.90;;;;;;5037493;28;20037;-74
2023/07/05 06:05:25;;;;;;;0.20;0.20;;;22.60;99.90;;;;;;5038479;28;20027;-72
2023/07/05 06:07:50;;;;;;;0.10;0.10;;;22.60;99.90;;;;;;5039140;28;20020;-77
2023/07/05 06:10:16;;;;;;;6.93;1.15;;;22.40;99.90;;;;;;5039312;28;20029;-79
2023/07/05 06:12:42;;;;;;;0.10;0.10;;;22.50;99.90;;;;;;5038009;28;20009;-75
2023/07/05 06:15:10;;;;;;;0.30;0.30;;;20.20;99.90;;;;;;5039949;28;20104;-79
2023/07/05 06:17:36;;;;;;;0.10;0.10;;;22.80;99.90;;;;;;5038100;28;20034;-73
2023/07/05 06:20:04;;;;;;;0.10;0.10;;;22.90;99.90;;;;;;5038662;28;20013;-84
2023/07/05 06:22:29;;;;;;;0.10;0.10;;;22.90;99.90;;;;;;5021349;28;20040;-73
2023/07/05 06:24:55;;;;;;;0.47;0.47;;;23.00;99.90;;;;;;5041944;28;20025;-77
2023/07/05 06:27:21;;;;;;;0.10;0.10;;;;;;;;;;5041270;28;20027;-83
2023/07/05 06:29:47;;;;;;;0.20;0.20;;;22.60;99.90;;;;;;5041650;28;20072;-76
2023/07/05 06:32:12;;;;;;;2.40;2.30;;;22.50;99.90;;;;;;5023498;28;20068;-72
2023/07/05 06:34:38;;;;;;;0.10;0.10;;;22.50;99.90;;;;;;5052460;28;20035;-73
2023/07/05 06:37:04;;;;;;;0.50;0.50;;;22.60;99.90;;;;;;5061999;28;20135;-83
2023/07/05 06:39:30;;;;;;;0.10;0.10;;;22.60;99.90;;;;;;5061808;28;20027;-76
2023/07/05 06:41:55;;;;;;;0.28;0.28;;;22.50;99.90;;;;;;5061817;28;20536;-73
2023/07/05 06:44:21;;;;;;;1.00;1.00;;;22.40;99.90;;;;;;5061760;28;20052;-75
2023/07/05 06:46:47;;;;;;;0.65;0.65;;;22.50;99.90;;;;;;5061474;28;20063;-74
2023/07/05 06:49:13;;;;;;;0.10;0.10;;;22.60;99.90;;;;;;5060942;28;20099;-72
2023/07/05 06:51:38;;;;;;;0.10;0.10;;;22.70;99.90;;;;;;5062504;28;20023;-73
2023/07/05 06:54:04;;;;;;;0.55;0.55;;;22.70;99.90;;;;;;5062416;28;20039;-74
2023/07/05 06:56:30;;;;;;;0.10;0.10;;;22.80;99.90;;;;;;5062194;28;20592;-75
2023/07/05 06:58:56;;;;;;;0.70;0.55;;;22.70;99.90;;;;;;5061184;28;20651;-77
2023/07/05 07:01:22;;;;;;;0.10;0.10;;;22.60;99.90;;;;;;5061115;28;20020;-78
2023/07/05 07:03:47;;;;;;;0.28;0.28;;;22.60;99.90;;;;;;5061213;28;20036;-77
2023/07/05 07:06:13;;;;;;;0.13;0.13;;;22.60;99.90;;;;;;5061087;28;20608;-74
2023/07/05 07:08:39;;;;;;;0.10;0.10;;;22.50;99.90;;;;;;5035287;28;20082;-79
2023/07/05 07:11:07;;;;;;;0.10;0.10;;;22.40;99.90;;;;;;5040730;28;20515;-76
2023/07/05 07:13:33;;;;;;;0.10;0.10;;;22.30;99.90;;;;;;5040719;28;20079;-73
2023/07/05 07:16:03;;;;;;;4.38;0.88;;;22.40;99.90;;;;;;5040762;28;20024;-78
2023/07/05 07:18:29;;;;;;;0.10;0.10;;;22.40;99.90;;;;;;5041930;28;20642;-72
2023/07/05 07:20:56;;;;;;;0.57;0.57;;;22.50;99.90;;;;;;5040273;28;20044;-75
2023/07/05 07:23:23;;;;;;;0.17;0.17;;;22.60;99.90;;;;;;5040533;28;20052;-81
2023/07/05 07:26:00;;;;;;;0.50;0.50;;;22.70;99.90;;;;;;5040356;28;20071;-72
2023/07/05 07:28:26;;;;;;;0.30;0.30;;;22.70;99.90;;;;;;5040357;28;20103;-83
2023/07/05 07:30:52;;;;;;;1.80;1.70;;;22.70;99.90;;;;;;5040059;28;20655;-77
2023/07/05 07:33:18;;;;;;;3.20;1.20;;;22.80;99.90;;;;;;5039195;28;20100;-73
2023/07/05 07:35:44;;;;;;;0.10;0.10;;;23.00;99.90;;;;;;5040166;28;20104;-77
2023/07/05 07:38:10;;;;;;;0.10;0.10;;;23.10;99.90;;;;;;5039898;28;20032;-73
2023/07/05 07:40:39;;;;;;;0.10;0.10;;;23.50;99.90;;;;;;5021838;28;20033;-78
2023/07/05 07:43:06;;;;;;;1.65;0.77;;;23.30;99.90;;;;;;5039700;28;20016;-74
2023/07/05 07:45:32;;;;;;;0.10;0.10;;;23.30;99.90;;;;;;5039689;28;20013;-76
2023/07/05 07:47:58;;;;;;;0.20;0.20;;;23.30;99.90;;;;;;5038999;28;20021;-74
2023/07/05 07:50:25;;;;;;;0.10;0.10;;;23.40;99.90;;;;;;5039533;28;20033;-79
2023/07/05 07:52:51;;;;;;;2.47;1.42;;;23.50;99.90;;;;;;5039729;28;20676;-75
2023/07/05 07:55:17;;;;;;;1.15;1.05;;;23.60;99.90;;;;;;5039366;28;20043;-74
2023/07/05 07:57:43;;;;;;;1.23;1.13;;;23.70;99.90;;;;;;5021894;28;20037;-75
2023/07/05 08:00:10;;;;;;;0.10;0.10;;;24.00;99.90;;;;;;5039459;28;20104;-74
2023/07/05 08:02:37;;;;;;;9.15;8.43;;;24.20;99.90;;;;;;5038946;28;20091;-80
2023/07/05 08:05:03;;;;;;;0.10;0.10;;;24.40;99.90;;;;;;5047230;28;20052;-73
2023/07/05 08:07:31;;;;;;;0.00;0.00;;;24.70;99.90;;;;;;5079520;28;20020;-77
2023/07/05 08:09:57;;;;;;;1.25;0.73;;;24.90;99.90;;;;;;5063990;28;20659;-71
2023/07/05 08:12:23;;;;;;;0.80;0.80;;;25.10;99.90;;;;;;5059450;28;20020;-74
2023/07/05 08:14:49;;;;;;;0.82;0.82;;;25.30;99.90;;;;;;5059119;28;20085;-72
2023/07/05 08:17:15;;;;;;;0.10;0.10;;;25.30;99.90;;;;;;5040753;28;20067;-72
2023/07/05 08:19:41;;;;;;;0.30;0.30;;;25.30;99.90;;;;;;5059063;28;20020;-72
2023/07/05 08:22:07;;;;;;;0.47;0.47;;;25.40;99.90;;;;;;5079255;28;20708;-73
2023/07/05 08:24:33;;;;;;;0.15;0.15;;;25.20;99.90;;;;;;5079141;28;20024;-72
2023/07/05 08:26:59;;;;;;;0.60;0.57;;;25.30;99.90;;;;;;5079081;28;20403;-73
2023/07/05 08:29:25;;;;;;;0.35;0.35;;;25.30;99.90;;;;;;5078982;28;20103;-72
2023/07/05 08:31:51;;;;;;;0.10;0.10;;;25.20;99.90;;;;;;5060529;28;20051;-73
2023/07/05 08:34:19;;;;;;;0.10;0.10;;;24.90;99.90;;;;;;5078844;28;20083;-78
2023/07/05 08:36:46;;;;;;;0.05;0.05;;;24.80;99.90;;;;;;5078506;28;20089;-77
2023/07/05 08:39:12;;;;;;;0.50;0.50;;;24.90;99.90;;;;;;5078366;28;20016;-80
2023/07/05 08:41:41;;;;;;;0.65;0.65;;;24.70;99.90;;;;;;5078283;28;20078;-82
2023/07/05 08:44:59;;;;;;;0.00;0.00;;;24.90;99.90;;;;;;5078671;28;20020;-76
2023/07/05 08:47:32;;;;;;;0.10;0.10;;;25.10;99.90;;;;;;4962017;28;20138;-76
2023/07/05 08:50:04;;;;;;;3.83;2.97;;;25.50;99.90;;;;;;4977578;28;20027;-80
2023/07/05 08:52:39;;;;;;;0.20;0.20;;;25.60;99.90;;;;;;4957551;28;20031;-75
2023/07/05 08:55:08;;;;;;;0.20;0.20;;;25.50;99.90;;;;;;4958551;28;20019;-73
2023/07/05 08:57:49;;;;;;;0.10;0.10;;;25.30;99.90;;;;;;4976758;28;20026;-72
2023/07/05 09:00:21;;;;;;;0.10;0.10;;;25.50;99.90;;;;;;4957770;28;20026;-72
2023/07/05 09:02:47;;;;;;;0.28;0.28;;;25.90;99.90;;;;;;4956473;28;20034;-75
2023/07/05 09:05:23;;;;;;;0.05;0.05;;;26.20;99.90;;;;;;4958939;28;20043;-84
2023/07/05 09:07:48;;;;;;;0.17;0.17;;;26.40;99.90;;;;;;4976861;28;20125;-78
2023/07/05 09:10:40;;;;;;;0.13;0.13;;;26.50;99.90;;;;;;4974332;28;20149;-82
2023/07/05 09:13:16;;;;;;;0.30;0.30;;;26.20;99.90;;;;;;4956576;28;20062;-72
2023/07/05 09:16:00;;;;;;;0.25;0.25;;;26.60;99.90;;;;;;4962036;28;20207;-72
2023/07/05 09:18:34;;;;;;;;;;;26.60;99.90;;;;;;4976099;28;20057;-75
2023/07/05 09:21:35;;;;;;;0.15;0.15;;;26.50;99.90;;;;;;4977294;28;19912;-75
2023/07/05 09:24:03;;;;;;;1.23;1.17;;;26.40;99.90;;;;;;4983445;28;20031;-76
2023/07/05 09:26:53;;;;;;;1.73;1.48;;;26.60;99.90;;;;;;5069913;28;20506;-73
2023/07/05 09:29:30;;;;;;;0.00;0.00;;;25.80;99.90;;;;;;5078606;28;20012;-74
2023/07/05 09:31:59;;;;;;;0.52;0.43;;;26.20;99.90;;;;;;5060198;28;20024;-75
2023/07/05 09:34:38;;;;;;;0.63;0.63;;;26.10;99.90;;;;;;5059235;28;20541;-79
2023/07/05 09:37:21;;;;;;;0.30;0.20;;;26.20;99.90;;;;;;5077133;28;20716;-73
2023/07/05 09:40:08;;;;;;;;;;;26.70;99.90;;;;;;5060049;28;20021;-75
2023/07/05 09:42:59;;;;;;;0.47;0.47;;;26.90;99.90;;;;;;5038156;28;19912;-76
2023/07/05 09:45:26;;;;;;;0.10;0.10;;;26.60;99.90;;;;;;5037899;28;20020;-73
2023/07/05 09:48:01;;;;;;;0.17;0.17;;;26.50;99.90;;;;;;5037664;28;20048;-75
2023/07/05 09:50:27;;;;;;;1.90;1.70;;;26.40;99.90;;;;;;5037634;28;20029;-74
2023/07/05 09:53:02;;;;;;;0.10;0.10;;;26.30;99.90;;;;;;5037889;28;20021;-74
2023/07/05 09:55:27;;;;;;;0.30;0.30;;;26.40;99.90;;;;;;5037425;28;20029;-74
2023/07/05 09:57:54;;;;;;;0.00;0.00;;;26.20;99.90;;;;;;5037375;28;20079;-74
2023/07/05 10:00:34;;;;;;;0.17;0.17;;;26.20;99.90;;;;;;5037316;28;20075;-74
2023/07/05 10:03:12;;;;;;;0.57;0.57;;;26.20;99.90;;;;;;5036779;28;20029;-73
2023/07/05 10:05:38;;;;;;;0.45;0.45;;;26.50;99.90;;;;;;5037434;28;20029;-74
2023/07/05 10:08:15;;;;;;;0.30;0.30;;;26.70;99.90;;;;;;5037739;28;20055;-73
2023/07/05 10:10:42;;;;;;;0.35;0.30;;;26.90;99.90;;;;;;5037407;28;20096;-73
2023/07/05 10:13:26;;;;;;;0.40;0.40;;;26.90;99.90;;;;;;5037297;28;20021;-74
2023/07/05 10:16:04;;;;;;;0.20;0.20;;;27.10;99.90;;;;;;5037502;28;20076;-73
2023/07/05 10:18:37;;;;;;;0.43;0.43;;;27.40;99.90;;;;;;5037063;28;20025;-73
2023/07/05 10:21:08;;;;;;;0.13;0.13;;;27.50;99.90;;;;;;5037493;28;20029;-74
2023/07/05 10:23:34;;;;;;;1.33;1.13;;;28.60;99.90;;;;;;5037510;28;20009;-75
2023/07/05 10:26:06;;;;;;;0.25;0.25;;;28.10;99.90;;;;;;5037198;28;20120;-74
2023/07/05 10:28:35;;;;;;;0.63;0.63;;;28.20;99.90;;;;;;5037790;28;20032;-80
2023/07/05 10:31:05;;;;;;;0.30;0.30;;;28.70;99.90;;;;;;5037127;28;20032;-77
2023/07/05 10:33:37;;;;;;;0.45;0.45;;;28.00;99.90;;;;;;5037114;28;20747;-81
2023/07/05 10:36:12;;;;;;;0.70;0.70;;;27.80;99.90;;;;;;5037118;28;20404;-73
2023/07/05 10:38:45;;;;;;;1.17;1.08;;;27.50;99.90;;;;;;5037431;28;20025;-75
2023/07/05 10:41:19;;;;;;;1.45;0.55;;;27.00;99.90;;;;;;5039193;28;20657;-74
2023/07/05 10:44:10;;;;;;;1.48;1.00;;;26.80;99.90;;;;;;5038708;28;20100;-73
2023/07/05 10:46:38;;;;;;;4.47;1.08;;;26.50;99.90;;;;;;5021760;28;20017;-75
2023/07/05 10:49:12;;;;;;;0.17;0.15;;;26.20;99.90;;;;;;5038647;28;20664;-73
2023/07/05 10:51:41;;;;;;;0.30;0.30;;;26.10;99.90;;;;;;5038074;28;20025;-74
2023/07/05 10:54:22;;;;;;;0.43;0.40;;;25.90;99.90;;;;;;5019609;28;20033;-73
2023/07/05 10:56:49;;;;;;;1.98;1.88;;;25.70;99.90;;;;;;5020181;28;20120;-74
2023/07/05 10:59:36;;;;;;;0.10;0.10;;;25.60;99.90;;;;;;5038179;28;20021;-73
2023/07/05 11:02:26;;;;;;;0.93;0.40;;;25.50;99.90;;;;;;5037191;28;20021;-75
2023/07/05 11:04:53;;;;;;;0.00;0.00;;;25.20;99.90;;;;;;5037135;28;20037;-73
2023/07/05 11:07:21;;;;;;;0.32;0.32;;;25.10;99.90;;;;;;5018962;28;20491;-77
2023/07/05 11:09:47;;;;;;;1.88;1.75;;;24.90;99.90;;;;;;5040253;28;20020;-73
2023/07/05 11:12:20;;;;;;;0.00;0.00;;;24.70;99.90;;;;;;5040910;28;20025;-73
2023/07/05 11:14:46;;;;;;;0.13;0.13;;;24.60;99.90;;;;;;5041383;28;20025;-74
2023/07/05 11:17:21;;;;;;;0.25;0.25;;;24.40;99.90;;;;;;5040992;28;20093;-73
2023/07/05 11:19:46;;;;;;;0.00;0.00;;;24.40;99.90;;;;;;5041190;28;20025;-79
2023/07/05 11:22:37;;;;;;;0.50;0.50;;;24.50;99.90;;;;;;5040736;28;20427;-72
2023/07/05 11:25:04;;;;;;;4.78;1.13;;;25.00;99.90;;;;;;5040615;28;20033;-73
2023/07/05 11:27:29;;;;;;;0.45;0.15;;;25.60;99.90;;;;;;5040276;28;20106;-87
2023/07/05 11:29:56;;;;;;;0.28;0.28;;;26.10;99.90;;;;;;5040725;28;20695;-78
2023/07/05 11:32:26;;;;;;;0.57;0.57;;;26.70;99.90;;;;;;5040567;28;20017;-75
2023/07/05 11:34:54;;;;;;;1.15;0.32;;;27.10;99.90;;;;;;5040593;28;20033;-76
2023/07/05 11:37:20;;;;;;;4.28;1.70;;;27.50;99.90;;;;;;5022533;28;20534;-78
2023/07/05 11:39:51;;;;;;;0.15;0.15;;;27.40;99.90;;;;;;5041455;28;20013;-85
2023/07/05 11:42:21;;;;;;;0.70;0.55;;;27.40;99.90;;;;;;5060478;28;20044;-78
2023/07/05 11:44:50;;;;;;;0.17;0.17;;;27.00;99.90;;;;;;5060323;28;20016;-76
2023/07/05 11:47:21;;;;;;;0.10;0.10;;;27.20;99.90;;;;;;5059664;28;20033;-73
2023/07/05 11:50:08;;;;;;;0.20;0.20;;;27.40;99.90;;;;;;5060025;28;20760;-74
2023/07/05 11:52:42;;;;;;;1.85;0.95;;;27.40;99.90;;;;;;5060313;28;20107;-76
2023/07/05 11:55:19;;;;;;;0.20;0.20;;;27.80;99.90;;;;;;5060383;28;20017;-74
2023/07/05 11:58:04;;;;;;;0.20;0.20;;;28.30;99.90;;;;;;5059861;28;20123;-75
2023/07/05 12:00:38;;;;;;;0.75;0.75;;;28.90;99.90;;;;;;5060456;28;20066;-73
2023/07/05 12:03:13;;;;;;;0.73;0.73;;;29.70;99.90;;;;;;5059479;28;20177;-74
2023/07/05 12:05:39;;;;;;;3.10;0.63;;;30.90;98.70;;;;;;5059931;28;20051;-74
2023/07/05 12:08:24;;;;;;;0.70;0.68;;;31.70;95.60;;;;;;5042028;28;20020;-74
2023/07/05 12:10:54;;;;;;;6.97;1.45;;;32.60;91.80;;;;;;5041865;28;20033;-75
2023/07/05 12:13:23;;;;;;;1.48;0.75;;;33.30;90.20;;;;;;5060012;28;20051;-83
2023/07/05 12:15:50;;;;;;;1.38;1.08;;;33.90;87.60;;;;;;5059651;28;20259;-78
2023/07/05 12:18:16;;;;;;;0.70;0.47;;;34.00;85.60;;;;;;5041686;28;20028;-73
2023/07/05 12:20:49;;;;;;;0.40;0.40;;;34.40;82.30;;;;;;5059860;28;20530;-74
2023/07/05 12:23:17;;;;;;;7.78;1.40;;;34.50;82.10;;;;;;5040822;28;20268;-72
2023/07/05 12:25:50;;;;;;;1.40;0.65;;;35.20;81.20;;;;;;5058526;28;20016;-76
2023/07/05 12:28:19;;;;;;;2.08;1.20;;;35.50;77.70;;;;;;5041253;28;20031;-76
2023/07/05 12:30:47;;;;;;;3.30;1.95;;;36.30;77.50;;;;;;5058742;28;20683;-74
2023/07/05 12:33:34;;;;;;;0.35;0.35;;;36.40;74.70;;;;;;5059081;28;20032;-74
2023/07/05 12:36:20;;;;;;;0.47;0.47;;;36.90;75.70;;;;;;5041477;28;20033;-73
2023/07/05 12:38:50;;;;;;;2.50;1.13;;;37.40;72.00;;;;;;5059984;28;20031;-76
2023/07/05 12:41:23;;;;;;;0.82;0.65;;;37.00;73.20;;;;;;5027011;28;20033;-72
2023/07/05 12:43:57;;;;;;;1.75;1.02;;;37.40;73.10;;;;;;5038898;28;20021;-75
2023/07/05 12:46:24;;;;;;;2.67;0.77;;;37.80;71.10;;;;;;5038112;28;20159;-74
2023/07/05 12:48:50;;;;;;;1.65;0.98;;;38.10;71.80;;;;;;5038476;28;20100;-75
2023/07/05 12:51:19;;;;;;;0.65;0.50;;;38.40;71.00;;;;;;5039274;28;20100;-79
2023/07/05 12:53:57;;;;;;;1.50;0.70;;;38.40;70.00;;;;;;5039032;28;20044;-77
2023/07/05 12:56:41;;;;;;;0.82;0.60;;;38.60;69.90;;;;;;5038412;28;20021;-82
2023/07/05 12:59:25;;;;;;;2.75;2.10;;;38.80;68.20;;;;;;5038317;28;20700;-80
2023/07/05 13:01:52;;;;;;;1.52;0.80;;;38.40;66.90;;;;;;5037903;28;20104;-74
2023/07/05 13:04:19;;;;;;;2.47;0.93;;;38.20;67.10;;;;;;5037777;28;20074;-80